Time;durP1;ratioP1;P1;durP2;ratioP2;P2;SDS_P1;SDS_P2;PMS_P1;PMS_P2;Temp;Humidity;BMP_temperature;BMP_pressure;BME280_temperature;BME280_humidity;BME280_pressure;Samples;Min_cycle;Max_cycle;Signal;HPM_P1;HPM_P2
2023/09/17 00:01:26;;;;;;;11.20;8.60;;;;;;;14.33;75.28;97489.16;102832;1289;106870;-82
2023/09/17 00:10:41;;;;;;;11.50;9.70;;;;;;;14.22;75.46;97494.48;101549;1295;635741;-77
2023/09/17 00:13:08;;;;;;;12.30;10.00;;;;;;;14.12;75.51;97500.40;103771;1277;96930;-77
2023/09/17 00:15:37;;;;;;;11.50;8.70;;;;;;;14.09;75.73;97498.10;104147;1272;96817;-77
2023/09/17 00:18:05;;;;;;;11.30;8.50;;;;;;;14.10;75.79;97494.87;104130;1273;97956;-77
2023/09/17 00:20:33;;;;;;;14.20;8.60;;;;;;;14.10;75.71;97491.88;104179;1272;101422;-77
2023/09/17 00:23:04;;;;;;;13.00;8.40;;;;;;;14.07;75.78;97492.52;104147;1266;99346;-74
2023/09/17 00:25:32;;;;;;;12.10;8.50;;;;;;;14.03;75.93;97489.57;104105;1269;95864;-74
2023/09/17 00:27:59;;;;;;;14.50;9.20;;;;;;;14.01;75.90;97488.60;104286;1269;95882;-74
2023/09/17 00:30:28;;;;;;;12.70;9.40;;;;;;;13.99;75.84;97485.84;104227;1264;106002;-78
2023/09/17 00:32:56;;;;;;;10.50;8.20;;;;;;;13.96;76.09;97478.62;104226;1268;100341;-78
2023/09/17 00:35:23;;;;;;;11.90;8.40;;;;;;;13.91;76.09;97477.14;104210;1269;99360;-79
2023/09/17 00:37:51;;;;;;;12.20;8.10;;;;;;;13.80;76.18;97469.38;104601;1260;96151;-79
2023/09/17 00:40:23;;;;;;;11.00;8.20;;;;;;;13.68;76.42;97458.09;104669;1264;95842;-78
2023/09/17 00:42:51;;;;;;;9.70;8.10;;;;;;;13.59;76.50;97456.42;104493;1257;100853;-78
2023/09/17 00:45:18;;;;;;;11.70;8.40;;;;;;;13.59;76.81;97467.70;104667;1270;101460;-77
2023/09/17 00:47:46;;;;;;;11.40;8.50;;;;;;;13.61;77.09;97478.52;104607;1260;100172;-77
2023/09/17 00:50:14;;;;;;;13.60;9.10;;;;;;;13.65;77.08;97481.96;104610;1260;95908;-77
2023/09/17 00:52:41;;;;;;;10.30;8.50;;;;;;;13.61;77.19;97480.30;104523;1282;95951;-78
2023/09/17 00:55:10;;;;;;;9.80;8.80;;;;;;;13.52;77.14;97476.51;104518;1263;101254;-77
2023/09/17 00:57:40;;;;;;;12.40;8.40;;;;;;;13.49;77.06;97469.86;104508;1273;99148;-77
2023/09/17 01:00:11;;;;;;;11.00;7.90;;;;;;;13.49;77.12;97462.45;104535;1263;98965;-82
2023/09/17 01:02:40;;;;;;;10.50;8.50;;;;;;;13.49;77.15;97464.67;104548;1260;96575;-74
2023/09/17 01:05:08;;;;;;;13.40;8.30;;;;;;;13.49;77.05;97470.89;104288;1263;96217;-74
2023/09/17 01:07:36;;;;;;;10.90;7.90;;;;;;;13.47;77.21;97470.40;104453;1260;100965;-74
2023/09/17 01:10:04;;;;;;;11.50;8.40;;;;;;;13.43;77.51;97470.73;104448;1264;101677;-74
2023/09/17 01:12:32;;;;;;;13.90;8.60;;;;;;;13.36;77.71;97467.86;104492;1266;100170;-74
2023/09/17 01:15:00;;;;;;;14.50;9.20;;;;;;;13.35;77.70;97465.79;104431;1266;96029;-75
2023/09/17 01:17:30;;;;;;;12.40;8.50;;;;;;;13.38;77.71;97465.48;104515;1263;96843;-74
2023/09/17 01:19:59;;;;;;;9.80;7.70;;;;;;;13.40;77.84;97462.98;104519;1266;100841;-83
2023/09/17 01:22:34;;;;;;;16.00;8.40;;;;;;;13.40;77.75;97470.38;104515;1266;99363;-83
2023/09/17 01:25:12;;;;;;;10.30;8.00;;;;;;;13.39;77.67;97474.89;104519;1272;100138;-83
2023/09/17 01:27:41;;;;;;;10.30;8.30;;;;;;;13.39;77.68;97473.48;104979;1256;96722;-83
2023/09/17 01:30:11;;;;;;;12.10;8.60;;;;;;;13.38;77.72;97476.98;104943;1267;97126;-77
2023/09/17 01:32:40;;;;;;;14.90;9.10;;;;;;;13.37;77.88;97482.16;104750;1263;100075;-76
2023/09/17 01:35:08;;;;;;;10.80;8.30;;;;;;;13.38;78.10;97481.32;104689;1263;101820;-77
2023/09/17 01:37:41;;;;;;;12.70;8.80;;;;;;;13.39;78.17;97481.02;104888;1259;99965;-76
2023/09/17 01:40:13;;;;;;;11.40;8.40;;;;;;;13.39;78.02;97481.30;104746;1260;96686;-77
2023/09/17 01:42:44;;;;;;;10.60;8.60;;;;;;;13.38;78.11;97478.90;104962;1258;96190;-77
2023/09/17 01:45:13;;;;;;;12.10;9.00;;;;;;;13.34;78.11;97472.48;104994;1260;100003;-79
2023/09/17 01:47:47;;;;;;;13.30;9.00;;;;;;;13.31;78.17;97471.91;104982;1260;100332;-78
2023/09/17 01:50:16;;;;;;;9.90;8.60;;;;;;;13.31;78.08;97478.29;104668;1263;99513;-78
2023/09/17 01:52:45;;;;;;;11.50;8.70;;;;;;;13.31;78.25;97482.67;104748;1270;96021;-79
2023/09/17 01:55:13;;;;;;;11.50;8.60;;;;;;;13.28;78.27;97479.13;104727;1259;96405;-78
2023/09/17 01:57:42;;;;;;;11.90;8.20;;;;;;;13.25;78.17;97479.42;104683;1260;99950;-78
2023/09/17 02:00:16;;;;;;;11.30;8.40;;;;;;;13.24;78.19;97474.63;104715;1278;100263;-74
2023/09/17 02:02:48;;;;;;;10.90;8.10;;;;;;;13.24;78.14;97474.97;104708;1273;99925;-74
2023/09/17 02:05:20;;;;;;;11.30;7.90;;;;;;;13.23;78.26;97472.69;104707;1259;97263;-74
2023/09/17 02:07:48;;;;;;;10.90;7.80;;;;;;;13.21;78.10;97470.70;104747;1269;96805;-74
2023/09/17 02:10:16;;;;;;;13.20;8.20;;;;;;;13.20;78.25;97468.92;104317;1268;101327;-74
2023/09/17 02:12:44;;;;;;;8.60;7.70;;;;;;;13.10;78.14;97478.09;104683;1261;101389;-74
2023/09/17 02:15:12;;;;;;;11.40;8.30;;;;;;;13.02;78.50;97481.48;104668;1260;100121;-77
2023/09/17 02:17:39;;;;;;;12.40;8.60;;;;;;;12.91;78.66;97479.34;104650;1259;96819;-83
2023/09/17 02:20:10;;;;;;;9.20;8.30;;;;;;;12.88;78.71;97477.30;104716;1259;95936;-83
2023/09/17 02:22:39;;;;;;;8.90;8.10;;;;;;;12.90;78.87;97474.95;104876;1264;99489;-83
2023/09/17 02:25:08;;;;;;;12.40;8.80;;;;;;;12.91;78.90;97474.42;104709;1271;101326;-83
2023/09/17 02:27:35;;;;;;;10.10;8.30;;;;;;;12.91;78.91;97474.20;104925;1257;98795;-82
2023/09/17 02:30:04;;;;;;;10.00;8.50;;;;;;;12.91;78.97;97473.98;104965;1254;95941;-83
2023/09/17 02:32:33;;;;;;;14.60;8.60;;;;;;;12.91;78.91;97471.77;104975;1254;96306;-83
2023/09/17 02:35:00;;;;;;;10.60;7.60;;;;;;;12.90;78.97;97474.99;104967;1256;100016;-82
2023/09/17 02:37:28;;;;;;;13.70;8.60;;;;;;;12.89;79.09;97481.79;104967;1267;101260;-83
2023/09/17 02:39:56;;;;;;;10.00;8.20;;;;;;;12.88;79.06;97483.55;104932;1260;99882;-82
2023/09/17 02:42:24;;;;;;;9.00;7.90;;;;;;;12.84;79.02;97475.66;104955;1257;95791;-82
2023/09/17 02:44:52;;;;;;;11.20;8.80;;;;;;;12.84;79.01;97474.95;105006;1259;96265;-83
2023/09/17 02:47:20;;;;;;;11.60;8.30;;;;;;;12.86;78.98;97482.44;104972;1259;100091;-76
2023/09/17 02:49:47;;;;;;;14.30;8.70;;;;;;;12.86;79.03;97483.90;104917;1259;101120;-77
2023/09/17 02:52:15;;;;;;;10.70;9.20;;;;;;;12.82;79.11;97484.73;104971;1263;99955;-77
2023/09/17 02:54:43;;;;;;;10.40;9.30;;;;;;;12.79;79.08;97484.34;104957;1267;95867;-77
2023/09/17 02:57:10;;;;;;;10.50;8.80;;;;;;;12.80;79.15;97485.95;104953;1259;96850;-78
2023/09/17 02:59:38;;;;;;;12.50;9.10;;;;;;;12.79;79.14;97485.70;104958;1260;98599;-79
2023/09/17 03:02:06;;;;;;;11.50;9.20;;;;;;;12.78;79.19;97486.08;104938;1254;101535;-78
2023/09/17 03:04:34;;;;;;;11.20;8.90;;;;;;;12.76;79.09;97491.30;104916;1260;100187;-78
2023/09/17 03:07:04;;;;;;;10.90;9.10;;;;;;;12.75;79.13;97492.27;104929;1257;95784;-78
2023/09/17 03:09:32;;;;;;;11.60;9.00;;;;;;;12.66;79.11;97493.84;104986;1258;96050;-78
2023/09/17 03:12:00;;;;;;;11.10;8.60;;;;;;;12.60;79.22;97492.89;104948;1259;99192;-78
2023/09/17 03:14:27;;;;;;;10.00;8.80;;;;;;;12.61;79.26;97492.77;104906;1267;101376;-74
2023/09/17 03:16:55;;;;;;;14.70;9.00;;;;;;;12.62;79.13;97497.41;104949;1268;98793;-78
2023/09/17 03:19:23;;;;;;;14.00;8.20;;;;;;;12.63;79.21;97498.95;104921;1260;96436;-77
2023/09/17 03:24:33;;;;;;;9.90;7.90;;;;;;;12.68;78.92;97496.67;102135;1307;637307;-78
2023/09/17 03:27:00;;;;;;;13.10;9.00;;;;;;;12.66;78.96;97499.02;103889;1270;96111;-78
2023/09/17 03:32:12;;;;;;;15.60;9.30;;;;;;;12.68;78.93;97501.00;101630;1300;637169;-83
2023/09/17 03:35:13;;;;;;;10.60;8.70;;;;;;;12.61;79.06;97498.42;103028;1286;96845;-83
2023/09/17 03:38:05;;;;;;;13.60;8.30;;;;;;;12.61;79.05;97485.84;101600;1297;636056;-77
2023/09/17 03:40:33;;;;;;;10.50;8.30;;;;;;;12.57;78.85;97492.05;104188;1279;95842;-77
2023/09/17 03:46:46;;;;;;;10.00;8.50;;;;;;;12.56;78.82;97495.73;101633;1297;635315;-82
2023/09/17 03:52:12;;;;;;;13.00;7.80;;;;;;;12.57;78.89;97492.48;102378;1300;643026;-85
2023/09/17 03:55:19;;;;;;;8.20;7.30;;;;;;;12.51;78.99;97496.23;103035;1285;96104;-85
2023/09/17 03:58:26;;;;;;;7.90;7.10;;;;;;;12.49;79.17;97498.98;102625;1290;96250;-84
2023/09/17 04:08:33;;;;;;;12.30;7.70;;;;;;;12.41;79.20;97492.48;101656;1295;636582;-74
2023/09/17 04:11:00;;;;;;;11.10;7.80;;;;;;;12.41;79.07;97495.02;104151;1270;96077;-83
2023/09/17 04:13:29;;;;;;;11.10;7.50;;;;;;;12.40;79.09;97497.78;104160;1284;95894;-77
2023/09/17 04:15:57;;;;;;;8.80;7.20;;;;;;;12.39;79.00;97493.50;104240;1279;99614;-82
2023/09/17 04:18:24;;;;;;;10.80;7.10;;;;;;;12.38;79.01;97495.04;104116;1279;101418;-82
2023/09/17 04:26:39;;;;;;;12.00;8.10;;;;;;;12.39;78.82;97503.81;101556;1318;639460;-84
2023/09/17 04:29:48;;;;;;;9.90;8.80;;;;;;;12.28;79.06;97504.11;102951;1287;95888;-83
2023/09/17 04:41:52;;;;;;;13.90;9.30;;;;;;;12.28;79.09;97507.32;101779;1305;635824;-78
2023/09/17 04:44:19;;;;;;;11.80;9.10;;;;;;;12.22;79.31;97504.73;104183;1270;96195;-78
2023/09/17 04:46:47;;;;;;;19.90;13.80;;;;;;;12.19;79.55;97508.80;104215;1269;95861;-78
2023/09/17 04:49:15;;;;;;;23.30;17.90;;;;;;;12.14;79.81;97513.78;104198;1269;98131;-78
2023/09/17 04:51:43;;;;;;;21.00;14.80;;;;;;;12.11;80.06;97511.89;104212;1269;101719;-78
2023/09/17 04:54:10;;;;;;;20.70;13.90;;;;;;;12.07;80.23;97516.63;104167;1270;99983;-78
2023/09/17 04:56:38;;;;;;;17.30;11.60;;;;;;;12.06;80.34;97514.98;104198;1266;135413;-77
2023/09/17 04:59:06;;;;;;;17.90;12.70;;;;;;;12.10;80.37;97513.40;104358;1267;95871;-78
2023/09/17 05:01:33;;;;;;;14.50;12.40;;;;;;;12.15;80.28;97518.41;104375;1267;99558;-74
2023/09/17 05:04:03;;;;;;;15.40;13.50;;;;;;;12.18;80.35;97518.85;104375;1266;101318;-78
2023/09/17 05:06:30;;;;;;;18.10;14.70;;;;;;;12.21;80.44;97520.64;104699;1267;100397;-78
2023/09/17 05:08:58;;;;;;;13.80;12.20;;;;;;;12.20;80.73;97525.39;104661;1263;96181;-78
2023/09/17 05:11:26;;;;;;;18.00;13.90;;;;;;;12.17;81.00;97523.30;104697;1260;96460;-79
2023/09/17 05:13:53;;;;;;;20.80;13.60;;;;;;;12.13;81.22;97528.98;104713;1260;108654;-79
2023/09/17 05:16:21;;;;;;;17.60;13.30;;;;;;;12.12;81.42;97528.79;104771;1260;101302;-74
2023/09/17 05:18:49;;;;;;;19.10;13.30;;;;;;;12.14;81.41;97530.61;104715;1257;100397;-74
2023/09/17 05:21:19;;;;;;;15.00;12.60;;;;;;;12.20;81.38;97534.52;104694;1257;96810;-81
2023/09/17 05:23:47;;;;;;;16.00;11.90;;;;;;;12.25;81.29;97528.66;104729;1279;95851;-74
2023/09/17 05:26:15;;;;;;;15.20;10.90;;;;;;;12.29;81.44;97527.39;104703;1261;99759;-77
2023/09/17 05:28:44;;;;;;;13.00;10.50;;;;;;;12.35;81.37;97529.80;104736;1276;99997;-77
2023/09/17 05:31:12;;;;;;;17.40;9.70;;;;;;;12.39;81.50;97528.64;104571;1260;100084;-77
2023/09/17 05:33:39;;;;;;;14.00;9.70;;;;;;;12.43;81.52;97532.20;104688;1271;96085;-77
2023/09/17 05:36:07;;;;;;;11.70;10.30;;;;;;;12.47;81.46;97533.90;104726;1260;96448;-77
2023/09/17 05:38:36;;;;;;;14.40;10.30;;;;;;;12.52;81.49;97537.09;104701;1257;99909;-77
2023/09/17 05:41:03;;;;;;;12.40;10.40;;;;;;;12.57;81.47;97544.49;104525;1264;101598;-82
2023/09/17 05:43:31;;;;;;;14.00;10.30;;;;;;;12.61;81.76;97546.05;104691;1262;98547;-82
2023/09/17 05:45:59;;;;;;;14.00;10.50;;;;;;;12.67;82.00;97545.58;104708;1260;95853;-82
2023/09/17 05:48:27;;;;;;;14.00;10.90;;;;;;;12.71;82.18;97547.88;104648;1270;95930;-82
2023/09/17 05:50:54;;;;;;;13.50;11.10;;;;;;;12.75;82.36;97547.98;104671;1260;101348;-82
2023/09/17 05:53:22;;;;;;;15.20;11.10;;;;;;;12.80;82.26;97548.39;104672;1257;100399;-82
2023/09/17 05:55:50;;;;;;;19.30;11.50;;;;;;;12.85;82.26;97549.30;104686;1258;99910;-82
2023/09/17 05:58:18;;;;;;;14.40;11.30;;;;;;;12.90;82.28;97550.73;104658;1272;97122;-82
2023/09/17 06:00:45;;;;;;;12.40;11.10;;;;;;;12.95;82.46;97551.21;104649;1262;96158;-82
2023/09/17 06:03:13;;;;;;;16.70;10.90;;;;;;;13.00;82.65;97550.79;104754;1257;100837;-82
2023/09/17 06:05:41;;;;;;;15.50;11.60;;;;;;;13.06;82.60;97554.20;104879;1261;101337;-83
2023/09/17 06:08:09;;;;;;;16.80;11.50;;;;;;;13.12;82.55;97548.31;104635;1271;99271;-82
2023/09/17 06:10:36;;;;;;;12.40;10.40;;;;;;;13.20;82.66;97542.70;104654;1263;95908;-82
2023/09/17 06:13:04;;;;;;;12.80;10.80;;;;;;;13.27;82.74;97543.38;104327;1266;96704;-82
2023/09/17 06:15:32;;;;;;;12.50;10.70;;;;;;;13.35;82.80;97541.90;104300;1277;99632;-81
2023/09/17 06:18:00;;;;;;;13.10;10.20;;;;;;;13.41;82.90;97543.55;104320;1265;101404;-81
2023/09/17 06:20:27;;;;;;;16.00;10.60;;;;;;;13.47;82.89;97541.07;104263;1266;100028;-77
2023/09/17 06:22:55;;;;;;;12.80;9.60;;;;;;;13.53;83.01;97539.40;104301;1266;96662;-77
2023/09/17 06:25:24;;;;;;;13.20;10.40;;;;;;;13.60;83.00;97540.49;104178;1270;96055;-76
2023/09/17 06:27:51;;;;;;;13.10;10.20;;;;;;;13.68;83.16;97542.73;104234;1279;101124;-77
2023/09/17 06:30:19;;;;;;;10.90;9.30;;;;;;;13.76;83.19;97542.79;104197;1280;108913;-78
2023/09/17 06:32:47;;;;;;;11.20;9.50;;;;;;;13.85;83.44;97542.98;104450;1265;99308;-77
2023/09/17 06:35:15;;;;;;;12.60;10.00;;;;;;;13.94;83.53;97544.56;104445;1261;96814;-77
2023/09/17 06:37:44;;;;;;;14.40;10.10;;;;;;;14.05;83.62;97540.11;104462;1259;96481;-77
2023/09/17 06:40:14;;;;;;;10.60;9.40;;;;;;;14.16;83.59;97539.16;104497;1263;100838;-77
2023/09/17 06:42:42;;;;;;;12.30;10.70;;;;;;;14.28;83.88;97538.49;104454;1265;100222;-78
2023/09/17 06:45:10;;;;;;;11.20;10.10;;;;;;;14.39;84.05;97540.77;104571;1262;100054;-78
2023/09/17 06:47:38;;;;;;;10.50;9.10;;;;;;;14.50;83.93;97541.77;104606;1262;96034;-78
2023/09/17 06:50:07;;;;;;;10.70;9.50;;;;;;;14.62;83.87;97543.09;104625;1262;96150;-78
2023/09/17 06:52:35;;;;;;;10.80;9.00;;;;;;;14.73;83.88;97542.83;104606;1257;101332;-77
2023/09/17 06:55:04;;;;;;;10.70;9.20;;;;;;;14.84;83.84;97547.94;104659;1273;100147;-77
2023/09/17 06:57:33;;;;;;;12.10;9.40;;;;;;;14.98;83.68;97550.43;104910;1256;98808;-82
2023/09/17 07:00:00;;;;;;;9.30;8.30;;;;;;;15.10;83.62;97547.79;104999;1254;96807;-82
2023/09/17 07:02:28;;;;;;;10.70;9.30;;;;;;;15.23;83.69;97547.17;105003;1260;97194;-82
2023/09/17 07:04:56;;;;;;;13.20;8.90;;;;;;;15.35;83.64;97546.02;104943;1257;100871;-83
2023/09/17 07:07:24;;;;;;;11.50;8.90;;;;;;;15.47;83.75;97544.38;104966;1259;100343;-83
2023/09/17 07:09:51;;;;;;;10.00;8.80;;;;;;;15.59;83.79;97544.45;104955;1259;99070;-82
2023/09/17 07:12:19;;;;;;;9.20;7.70;;;;;;;15.72;83.63;97542.65;104959;1259;96119;-83
2023/09/17 07:14:47;;;;;;;10.80;9.40;;;;;;;15.85;83.60;97541.45;105042;1256;95834;-83
2023/09/17 07:17:16;;;;;;;12.70;8.40;;;;;;;15.99;83.56;97541.96;105043;1255;100824;-83
2023/09/17 07:19:43;;;;;;;11.20;8.90;;;;;;;16.14;83.35;97542.14;105038;1256;101638;-83
2023/09/17 07:22:14;;;;;;;11.00;8.10;;;;;;;16.32;83.25;97543.62;104947;1256;108431;-82
2023/09/17 07:24:43;;;;;;;9.40;8.10;;;;;;;16.50;83.34;97543.69;105028;1256;95838;-82
2023/09/17 07:27:10;;;;;;;9.10;8.10;;;;;;;16.75;83.11;97548.88;104983;1255;96386;-82
2023/09/17 07:29:38;;;;;;;8.50;7.60;;;;;;;17.06;83.01;97547.85;105040;1266;99912;-83
2023/09/17 07:32:06;;;;;;;10.20;7.20;;;;;;;17.43;82.61;97543.66;105034;1257;100060;-82
2023/09/17 07:34:34;;;;;;;8.60;7.20;;;;;;;17.85;82.06;97548.42;104947;1256;98462;-82
2023/09/17 07:37:03;;;;;;;8.20;6.90;;;;;;;18.28;81.10;97548.66;105029;1267;96033;-82
2023/09/17 07:39:31;;;;;;;9.40;7.50;;;;;;;18.73;79.93;97548.48;105059;1257;96828;-81
2023/09/17 07:41:59;;;;;;;8.40;7.10;;;;;;;19.13;78.71;97550.02;105002;1256;100107;-82
2023/09/17 07:44:26;;;;;;;9.60;7.00;;;;;;;19.54;78.63;97547.34;104995;1256;101252;-83
2023/09/17 07:46:54;;;;;;;9.80;6.40;;;;;;;20.01;78.56;97546.65;105024;1273;98540;-80
2023/09/17 07:49:26;;;;;;;7.60;6.50;;;;;;;20.46;77.67;97549.39;104994;1267;95834;-80
2023/09/17 07:51:55;;;;;;;;;;;;;;;20.83;74.66;97543.41;105084;1266;96200;-80
2023/09/17 07:54:23;;;;;;;7.00;5.60;;;;;;;21.12;74.69;97543.20;105026;1257;109354;-82
2023/09/17 07:56:50;;;;;;;6.50;5.70;;;;;;;21.49;75.01;97545.31;105035;1259;101363;-80
2023/09/17 07:59:18;;;;;;;6.30;5.70;;;;;;;21.86;74.25;97540.77;104973;1256;98967;-80
2023/09/17 08:01:47;;;;;;;6.40;5.80;;;;;;;22.17;73.16;97541.09;105053;1261;95847;-83
2023/09/17 08:04:15;;;;;;;6.90;5.50;;;;;;;22.48;72.39;97539.98;104744;1270;95980;-83
2023/09/17 08:06:43;;;;;;;7.70;5.40;;;;;;;22.83;71.37;97541.42;105021;1264;100805;-83
2023/09/17 08:09:11;;;;;;;5.80;5.20;;;;;;;23.08;69.22;97546.89;104997;1267;101708;-83
2023/09/17 08:11:38;;;;;;;6.80;4.90;;;;;;;23.36;68.94;97542.40;105038;1254;99270;-83
2023/09/17 08:14:06;;;;;;;9.00;5.40;;;;;;;23.60;67.34;97542.41;104992;1259;95911;-81
2023/09/17 08:16:35;;;;;;;8.00;5.30;;;;;;;23.89;67.90;97540.86;105034;1254;97186;-81
2023/09/17 08:19:02;;;;;;;6.10;4.80;;;;;;;24.26;67.38;97534.47;105010;1256;99932;-81
2023/09/17 08:21:30;;;;;;;8.30;5.30;;;;;;;24.64;66.45;97537.92;105107;1254;101522;-80
2023/09/17 08:23:58;;;;;;;5.70;5.10;;;;;;;24.99;65.50;97533.64;105137;1254;98793;-81
2023/09/17 08:26:27;;;;;;;5.90;4.60;;;;;;;25.31;64.49;97533.27;105095;1259;97233;-81
2023/09/17 08:28:56;;;;;;;5.20;4.70;;;;;;;25.64;63.85;97536.95;104560;1263;96034;-81
2023/09/17 08:31:25;;;;;;;5.20;4.70;;;;;;;25.89;62.50;97531.55;104602;1265;99939;-86
2023/09/17 08:33:53;;;;;;;6.10;4.40;;;;;;;26.13;61.81;97523.91;104547;1275;101636;-83
2023/09/17 08:36:22;;;;;;;5.70;4.60;;;;;;;26.37;61.35;97523.90;104375;1266;99251;-83
2023/09/17 08:38:51;;;;;;;6.30;4.70;;;;;;;26.60;60.53;97524.35;104600;1274;97308;-82
2023/09/17 08:41:19;;;;;;;5.30;4.20;;;;;;;26.78;59.46;97524.81;104492;1263;96394;-83
2023/09/17 08:43:47;;;;;;;4.80;4.40;;;;;;;26.95;59.02;97521.10;104480;1262;99894;-83
2023/09/17 08:46:15;;;;;;;6.50;4.50;;;;;;;27.07;58.57;97518.77;104489;1263;101131;-83
2023/09/17 08:48:44;;;;;;;4.90;4.40;;;;;;;27.19;57.91;97518.33;104357;1268;99031;-83
2023/09/17 08:51:16;;;;;;;4.60;4.20;;;;;;;27.33;56.98;97517.70;104552;1266;96600;-83
2023/09/17 08:53:56;;;;;;;6.10;4.40;;;;;;;27.39;56.45;97519.33;104513;1265;96667;-84
2023/09/17 08:56:26;;;;;;;5.50;4.30;;;;;;;27.44;56.19;97517.86;104408;1268;101291;-84
2023/09/17 08:59:00;;;;;;;4.80;4.10;;;;;;;27.54;55.93;97515.77;104299;1270;101350;-84
2023/09/17 09:01:28;;;;;;;3.80;3.50;;;;;;;27.66;53.65;97515.41;104716;1254;98576;-85
2023/09/17 09:03:56;;;;;;;3.60;3.30;;;;;;;27.70;53.22;97515.91;105119;1272;97919;-85
2023/09/17 09:06:25;;;;;;;4.70;3.40;;;;;;;27.79;53.24;97518.21;104783;1260;97009;-85
2023/09/17 09:08:55;;;;;;;3.60;3.30;;;;;;;27.94;52.70;97512.82;104881;1270;102250;-84
2023/09/17 09:11:23;;;;;;;3.50;3.20;;;;;;;28.07;51.49;97514.81;104851;1271;101985;-85
2023/09/17 09:13:53;;;;;;;4.90;4.10;;;;;;;28.19;51.69;97516.92;105091;1267;100193;-84
2023/09/17 09:16:22;;;;;;;3.50;3.00;;;;;;;28.36;51.04;97513.94;104859;1262;96843;-87
2023/09/17 09:18:49;;;;;;;2.80;2.60;;;;;;;28.51;50.15;97514.52;105160;1257;97007;-86
2023/09/17 09:21:17;;;;;;;3.50;3.20;;;;;;;28.55;49.10;97512.16;105119;1267;101292;-86
2023/09/17 09:23:45;;;;;;;3.70;3.40;;;;;;;28.46;48.78;97513.85;105089;1267;100356;-86
2023/09/17 09:26:13;;;;;;;3.20;2.90;;;;;;;28.23;49.05;97512.59;104900;1262;100034;-86
2023/09/17 09:28:41;;;;;;;4.70;4.20;;;;;;;28.09;49.22;97510.94;105110;1267;96630;-87
2023/09/17 09:31:09;;;;;;;4.50;3.70;;;;;;;28.02;48.96;97508.80;105175;1260;98167;-87
2023/09/17 09:33:37;;;;;;;3.90;3.50;;;;;;;28.01;48.41;97506.98;105072;1257;102492;-85
2023/09/17 09:36:05;;;;;;;3.30;3.00;;;;;;;28.05;48.70;97505.61;105218;1267;101747;-87
2023/09/17 09:38:33;;;;;;;4.20;3.80;;;;;;;28.09;48.75;97504.48;105148;1264;99955;-86
2023/09/17 09:41:01;;;;;;;5.30;4.10;;;;;;;28.14;49.36;97505.73;104902;1267;96814;-87
2023/09/17 09:43:31;;;;;;;4.60;3.70;;;;;;;28.27;48.33;97501.86;105137;1266;97047;-87
2023/09/17 09:46:06;;;;;;;3.70;3.30;;;;;;;28.35;47.95;97500.84;104801;1262;101918;-82
2023/09/17 09:48:41;;;;;;;5.20;3.20;;;;;;;28.44;48.07;97499.32;104968;1261;101468;-82
2023/09/17 09:51:09;;;;;;;2.60;2.40;;;;;;;28.57;47.79;97496.79;104786;1262;99000;-82
2023/09/17 09:53:37;;;;;;;3.40;3.00;;;;;;;28.69;46.47;97499.57;104895;1262;97310;-87
2023/09/17 09:56:05;;;;;;;3.90;2.90;;;;;;;28.78;46.70;97499.07;104696;1262;96760;-88
2023/09/17 09:58:33;;;;;;;4.80;2.70;;;;;;;28.89;46.06;97497.99;104706;1264;102723;-89
2023/09/17 10:01:04;;;;;;;5.00;2.40;;;;;;;28.90;45.81;97498.23;104774;1261;101568;-88
2023/09/17 10:03:33;;;;;;;4.40;2.50;;;;;;;28.94;45.27;97497.21;104669;1268;98650;-87
2023/09/17 10:06:07;;;;;;;3.50;2.70;;;;;;;28.95;45.59;97496.98;104704;1262;98005;-87
2023/09/17 10:08:38;;;;;;;3.00;2.80;;;;;;;29.04;45.62;97494.81;104606;1264;97055;-87
2023/09/17 10:11:08;;;;;;;2.80;2.60;;;;;;;29.14;44.96;97490.02;104688;1272;102438;-82
2023/09/17 10:13:36;;;;;;;3.90;2.90;;;;;;;29.18;44.81;97486.09;104643;1267;100104;-82
2023/09/17 10:16:05;;;;;;;2.70;2.40;;;;;;;29.22;44.87;97486.10;104646;1263;99097;-87
2023/09/17 10:18:36;;;;;;;2.90;2.30;;;;;;;29.19;44.69;97486.36;104839;1260;98015;-87
2023/09/17 10:21:05;;;;;;;2.50;2.20;;;;;;;29.19;44.54;97483.17;104658;1264;97200;-87
2023/09/17 10:23:35;;;;;;;2.40;2.20;;;;;;;29.20;43.32;97478.54;104791;1260;102605;-88
2023/09/17 10:26:04;;;;;;;2.60;2.40;;;;;;;29.16;43.70;97475.98;104798;1270;100203;-89
2023/09/17 10:28:34;;;;;;;2.80;2.60;;;;;;;29.16;44.08;97477.59;104965;1260;100029;-82
2023/09/17 10:31:02;;;;;;;4.30;2.70;;;;;;;29.19;43.87;97476.90;105123;1273;96584;-82
2023/09/17 10:33:35;;;;;;;2.60;2.40;;;;;;;29.24;43.99;97478.15;104717;1258;98139;-82
2023/09/17 10:36:05;;;;;;;5.00;2.90;;;;;;;29.26;43.32;97478.13;105174;1266;102428;-82
2023/09/17 10:38:36;;;;;;;2.80;2.30;;;;;;;29.27;42.87;97481.55;105127;1264;101668;-82
2023/09/17 10:41:05;;;;;;;4.90;2.30;;;;;;;29.26;42.62;97482.23;105133;1266;100197;-81
2023/09/17 10:43:36;;;;;;;3.00;2.10;;;;;;;29.28;42.78;97480.08;105102;1256;97980;-82
2023/09/17 10:46:08;;;;;;;4.30;2.60;;;;;;;29.30;42.42;97477.73;105130;1257;97074;-82
2023/09/17 10:48:38;;;;;;;2.60;2.40;;;;;;;29.20;42.52;97475.77;104438;1265;102149;-83
2023/09/17 10:51:06;;;;;;;2.80;2.60;;;;;;;28.96;41.81;97474.55;104645;1270;100352;-82
2023/09/17 10:53:34;;;;;;;2.60;2.40;;;;;;;28.69;42.40;97474.96;104627;1270;100261;-81
2023/09/17 10:56:09;;;;;;;2.30;2.10;;;;;;;28.50;42.46;97472.02;104619;1262;96779;-81
2023/09/17 10:58:42;;;;;;;4.00;2.20;;;;;;;28.29;41.80;97473.33;104662;1263;97090;-81
2023/09/17 11:01:13;;;;;;;2.50;2.20;;;;;;;28.05;42.04;97475.64;104423;1266;102398;-81
2023/09/17 11:03:58;;;;;;;2.60;2.30;;;;;;;27.82;42.30;97476.52;105406;1265;101737;-81
2023/09/17 11:06:29;;;;;;;3.70;2.40;;;;;;;27.64;42.69;97477.48;104651;1263;98970;-87
2023/09/17 11:08:57;;;;;;;2.80;2.60;;;;;;;27.50;42.91;97473.95;104696;1263;96785;-88
2023/09/17 11:11:31;;;;;;;4.10;2.60;;;;;;;27.35;43.80;97475.46;104698;1263;97487;-88
2023/09/17 11:13:59;;;;;;;2.40;2.20;;;;;;;27.19;44.36;97475.08;104736;1263;101163;-89
2023/09/17 11:16:30;;;;;;;2.50;2.30;;;;;;;27.06;45.07;97471.91;104560;1264;101642;-83
2023/09/17 11:19:07;;;;;;;2.10;2.00;;;;;;;26.94;46.22;97469.43;104632;1263;100154;-83
2023/09/17 11:21:36;;;;;;;2.60;2.30;;;;;;;26.82;46.46;97471.71;105089;1254;97883;-83
2023/09/17 11:24:06;;;;;;;2.90;2.30;;;;;;;26.77;46.33;97466.86;105134;1257;96977;-83
2023/09/17 11:26:37;;;;;;;3.20;2.80;;;;;;;26.85;46.31;97463.43;105208;1258;101536;-89
2023/09/17 11:29:07;;;;;;;2.40;2.20;;;;;;;26.96;45.97;97457.52;105137;1265;100463;-89
2023/09/17 11:31:54;;;;;;;3.70;2.60;;;;;;;27.08;45.81;97458.69;104897;1270;100266;-83
2023/09/17 11:34:22;;;;;;;2.70;2.50;;;;;;;27.17;45.40;97458.42;104878;1270;97661;-84
2023/09/17 11:36:50;;;;;;;2.50;2.30;;;;;;;27.18;45.56;97459.28;104887;1269;98289;-83
2023/09/17 11:39:21;;;;;;;3.10;2.70;;;;;;;27.20;45.07;97458.98;104876;1270;100939;-84
2023/09/17 11:41:55;;;;;;;6.80;3.20;;;;;;;27.25;44.94;97455.52;104865;1259;100052;-82
2023/09/17 11:44:23;;;;;;;3.60;2.80;;;;;;;27.35;44.80;97454.77;104487;1258;100047;-85
2023/09/17 11:46:51;;;;;;;3.60;2.30;;;;;;;27.45;44.49;97451.42;104804;1261;97571;-81
2023/09/17 11:49:19;;;;;;;6.10;3.10;;;;;;;27.53;44.47;97448.90;104690;1272;98164;-81
2023/09/17 11:51:49;;;;;;;3.00;2.70;;;;;;;27.63;44.69;97448.75;104854;1259;101181;-81
2023/09/17 11:54:19;;;;;;;2.50;2.30;;;;;;;27.71;44.34;97450.05;104741;1263;101590;-82
2023/09/17 11:56:53;;;;;;;2.10;2.00;;;;;;;27.78;43.51;97451.63;104868;1270;100256;-81
2023/09/17 11:59:23;;;;;;;3.20;2.40;;;;;;;27.84;43.79;97448.69;104925;1260;97122;-81
2023/09/17 12:01:55;;;;;;;2.40;2.20;;;;;;;27.88;43.12;97447.16;104936;1260;97003;-83
2023/09/17 12:04:32;;;;;;;3.20;2.50;;;;;;;27.88;42.91;97444.85;105095;1254;101081;-85
2023/09/17 12:07:00;;;;;;;2.80;2.50;;;;;;;27.90;43.18;97443.77;105076;1261;101436;-85
2023/09/17 12:12:38;;;;;;;2.80;2.60;;;;;;;28.09;43.31;97434.13;104721;1272;97406;-86